createdAt,value
2019-05-05T00:01:45.077Z,3.20
2019-05-05T00:04:20.814Z,3.10
2019-05-05T00:06:47.791Z,3.10
2019-05-05T00:09:14.813Z,3.10
2019-05-05T00:12:07.673Z,3.00
2019-05-05T00:14:54.694Z,3.00
2019-05-05T00:17:24.839Z,3.10
2019-05-05T00:19:51.859Z,3.10
2019-05-05T00:22:18.790Z,3.10
2019-05-05T00:24:45.637Z,3.10
2019-05-05T00:27:14.820Z,3.10
2019-05-05T00:29:42.069Z,3.10
2019-05-05T00:32:09.074Z,2.90
2019-05-05T00:34:36.051Z,2.90
2019-05-05T00:37:04.643Z,2.90
2019-05-05T00:39:31.914Z,3.00
2019-05-05T00:41:58.912Z,3.00
2019-05-05T00:44:25.890Z,3.00
2019-05-05T00:47:11.685Z,3.00
2019-05-05T00:49:46.341Z,3.00
2019-05-05T00:52:10.045Z,3.00
2019-05-05T00:54:37.063Z,3.00
2019-05-05T00:57:04.505Z,3.00
2019-05-05T00:59:35.211Z,3.00
2019-05-05T01:02:37.857Z,3.00
2019-05-05T01:05:25.292Z,3.00
2019-05-05T01:07:54.676Z,2.90
2019-05-05T01:10:22.336Z,2.90
2019-05-05T01:12:50.758Z,2.90
2019-05-05T01:15:17.938Z,3.00
2019-05-05T01:17:49.774Z,3.00
2019-05-05T01:20:17.633Z,3.00
2019-05-05T01:22:44.867Z,2.80
2019-05-05T01:25:14.666Z,2.80
2019-05-05T01:27:41.999Z,2.90
2019-05-05T01:30:15.202Z,2.80
2019-05-05T01:32:44.830Z,2.80
2019-05-05T01:35:14.315Z,2.80
2019-05-05T01:37:46.761Z,2.80
2019-05-05T01:40:40.354Z,2.90
2019-05-05T01:43:07.777Z,2.90
2019-05-05T01:45:35.435Z,2.90
2019-05-05T01:48:04.777Z,2.90
2019-05-05T01:50:31.966Z,3.00
2019-05-05T01:52:59.169Z,3.10
2019-05-05T01:55:27.331Z,3.20
2019-05-05T01:57:57.584Z,3.20
2019-05-05T02:00:26.709Z,3.20
2019-05-05T02:02:55.391Z,3.20
2019-05-05T02:05:24.183Z,3.20
2019-05-05T02:07:51.442Z,3.20
2019-05-05T02:10:18.919Z,3.20
2019-05-05T02:12:46.179Z,3.20
2019-05-05T02:15:14.888Z,3.10
2019-05-05T02:17:44.399Z,3.00
2019-05-05T02:20:40.316Z,3.00
2019-05-05T02:23:07.946Z,3.00
2019-05-05T02:25:35.183Z,2.90
2019-05-05T02:28:04.438Z,2.90
2019-05-05T02:30:42.446Z,2.90
2019-05-05T02:33:11.856Z,2.80
2019-05-05T02:35:39.141Z,2.80
2019-05-05T02:38:06.780Z,2.80
2019-05-05T02:40:35.111Z,2.70
2019-05-05T02:43:05.425Z,2.70
2019-05-05T02:45:47.338Z,2.70
2019-05-05T02:48:15.835Z,2.60
2019-05-05T02:51:02.173Z,2.60
2019-05-05T02:53:34.137Z,2.70
2019-05-05T02:56:05.112Z,2.90
2019-05-05T02:58:35.038Z,3.00
2019-05-05T03:01:10.276Z,3.10
2019-05-05T03:03:38.190Z,3.00
2019-05-05T03:06:05.429Z,3.00
2019-05-05T03:08:33.647Z,3.00
2019-05-05T03:11:01.165Z,3.00
2019-05-05T03:13:30.899Z,3.00
2019-05-05T03:16:14.206Z,3.10
2019-05-05T03:18:43.882Z,3.10
2019-05-05T03:21:10.999Z,3.10
2019-05-05T03:23:38.423Z,3.10
2019-05-05T03:26:05.826Z,3.20
2019-05-05T03:28:43.849Z,3.20
2019-05-05T03:31:15.802Z,3.30
2019-05-05T03:33:45.585Z,3.40
2019-05-05T03:36:14.014Z,3.50
2019-05-05T03:38:41.678Z,3.50
2019-05-05T03:41:14.137Z,3.60
2019-05-05T03:44:01.658Z,3.70
2019-05-05T03:46:30.181Z,3.70
2019-05-05T03:48:57.822Z,3.70
2019-05-05T03:51:25.687Z,3.70
2019-05-05T03:53:53.614Z,3.60
2019-05-05T03:56:21.193Z,3.70
2019-05-05T03:58:48.896Z,3.70
2019-05-05T04:01:30.712Z,3.80
2019-05-05T04:04:16.231Z,3.80
2019-05-05T04:06:45.417Z,3.90
2019-05-05T04:09:13.752Z,3.90
2019-05-05T04:11:41.479Z,3.90
2019-05-05T04:14:09.146Z,3.90
2019-05-05T04:16:43.582Z,3.90
2019-05-05T04:19:13.786Z,4.00
2019-05-05T04:21:40.927Z,4.00
2019-05-05T04:24:08.097Z,4.10
2019-05-05T04:26:35.074Z,4.10
2019-05-05T04:29:05.075Z,4.10
2019-05-05T04:31:31.087Z,4.10
2019-05-05T04:33:58.133Z,4.20
2019-05-05T04:36:25.263Z,4.30
2019-05-05T04:38:54.398Z,4.40
2019-05-05T04:41:21.361Z,4.40
2019-05-05T04:43:49.298Z,4.30
2019-05-05T04:46:16.700Z,4.40
2019-05-05T04:48:49.991Z,4.40
2019-05-05T04:51:21.418Z,4.50
2019-05-05T04:54:06.993Z,4.50
2019-05-05T04:56:34.882Z,4.50
2019-05-05T04:59:04.011Z,4.70
2019-05-05T05:01:33.564Z,4.70
2019-05-05T05:04:18.622Z,4.70
2019-05-05T05:06:51.130Z,4.80
2019-05-05T05:09:18.503Z,4.80
2019-05-05T05:11:46.078Z,4.80
2019-05-05T05:14:14.339Z,4.90
2019-05-05T05:16:43.698Z,4.90
2019-05-05T05:19:10.966Z,5.00
2019-05-05T05:21:38.191Z,5.00
2019-05-05T05:24:05.643Z,5.10
2019-05-05T05:26:33.569Z,5.10
2019-05-05T05:29:01.052Z,5.20
2019-05-05T05:31:28.242Z,5.30
2019-05-05T05:33:55.587Z,5.40
2019-05-05T05:36:24.800Z,5.40
2019-05-05T05:38:55.861Z,5.50
2019-05-05T05:41:43.607Z,5.50
2019-05-05T05:44:41.391Z,5.50
2019-05-05T05:47:28.719Z,5.50
2019-05-05T05:50:05.582Z,5.60
2019-05-05T05:52:34.371Z,5.60
2019-05-05T05:55:03.875Z,5.70
2019-05-05T05:57:30.947Z,5.90
2019-05-05T05:59:57.898Z,5.90
2019-05-05T06:02:25.346Z,5.90
2019-05-05T06:04:53.933Z,6.00
2019-05-05T06:07:21.218Z,6.00
2019-05-05T06:09:48.342Z,6.10
2019-05-05T06:12:15.562Z,6.20
2019-05-05T06:14:44.676Z,6.30
2019-05-05T06:17:13.530Z,6.20
2019-05-05T06:19:41.124Z,6.30
2019-05-05T06:22:08.158Z,6.40
2019-05-05T06:24:35.131Z,6.50
2019-05-05T06:27:03.766Z,6.60
2019-05-05T06:29:31.055Z,6.60
2019-05-05T06:31:58.095Z,6.70
2019-05-05T06:34:25.086Z,6.80
2019-05-05T06:36:53.787Z,6.90
2019-05-05T06:39:21.215Z,6.90
2019-05-05T06:41:59.092Z,7.00
2019-05-05T06:44:33.911Z,7.10
2019-05-05T06:47:05.638Z,7.20
2019-05-05T06:49:34.503Z,7.30
2019-05-05T06:52:04.039Z,7.40
2019-05-05T06:54:31.747Z,7.60
2019-05-05T06:56:58.822Z,7.80
2019-05-05T06:59:25.969Z,7.80
2019-05-05T07:01:53.657Z,8.00
2019-05-05T07:04:21.131Z,8.10
2019-05-05T07:06:54.074Z,8.20
2019-05-05T07:09:17.359Z,8.10
2019-05-05T07:11:44.368Z,8.10
2019-05-05T07:14:11.515Z,8.10
2019-05-05T07:16:38.910Z,8.20
2019-05-05T07:19:05.997Z,8.20
2019-05-05T07:21:34.261Z,8.20
2019-05-05T07:24:03.828Z,8.30
2019-05-05T07:26:31.690Z,8.20
2019-05-05T07:28:59.474Z,8.30
2019-05-05T07:31:26.810Z,8.40
2019-05-05T07:33:54.606Z,8.50
2019-05-05T07:36:34.250Z,8.60
2019-05-05T07:39:03.690Z,8.70
2019-05-05T07:41:31.363Z,9.00
2019-05-05T07:43:58.451Z,9.00
2019-05-05T07:46:26.683Z,9.40
2019-05-05T07:48:54.552Z,9.60
2019-05-05T07:51:24.126Z,9.80
2019-05-05T07:53:51.323Z,10.10
2019-05-05T07:56:18.426Z,10.30
2019-05-05T07:58:45.619Z,10.50
2019-05-05T08:01:14.061Z,10.60
2019-05-05T08:03:41.671Z,11.00
2019-05-05T08:06:08.678Z,11.00
2019-05-05T08:08:35.879Z,11.10
2019-05-05T08:11:04.811Z,11.10
2019-05-05T08:13:33.643Z,11.40
2019-05-05T08:16:03.858Z,11.60
2019-05-05T08:18:49.250Z,11.80
2019-05-05T08:21:16.594Z,11.80
2019-05-05T08:24:01.990Z,12.00
2019-05-05T08:26:50.132Z,12.00
2019-05-05T08:29:34.568Z,12.70
2019-05-05T08:32:13.588Z,12.80
2019-05-05T08:34:53.949Z,12.80
2019-05-05T08:37:10.936Z,12.50
2019-05-05T08:39:39.147Z,12.10
2019-05-05T08:42:06.367Z,11.80
2019-05-05T08:44:34.290Z,11.80
2019-05-05T08:47:01.555Z,11.80
2019-05-05T08:49:28.896Z,11.70
2019-05-05T08:51:55.908Z,11.50
2019-05-05T08:54:23.625Z,11.80
2019-05-05T08:56:50.983Z,11.70
2019-05-05T08:59:18.238Z,11.60
2019-05-05T09:01:45.358Z,11.40
2019-05-05T09:04:14.203Z,11.40
2019-05-05T09:06:43.552Z,11.10
2019-05-05T09:09:10.483Z,11.20
2019-05-05T09:11:37.553Z,11.40
2019-05-05T09:14:04.758Z,11.20
2019-05-05T09:16:33.514Z,11.20
2019-05-05T09:19:05.922Z,11.20
2019-05-05T09:21:34.582Z,11.10
2019-05-05T09:24:34.072Z,11.10
2019-05-05T09:27:06.267Z,11.40
2019-05-05T09:29:35.831Z,12.00
2019-05-05T09:32:04.036Z,12.60
2019-05-05T09:34:31.519Z,12.80
2019-05-05T09:36:58.830Z,12.70
2019-05-05T09:39:26.044Z,13.20
2019-05-05T09:41:53.759Z,13.70
2019-05-05T09:44:20.934Z,14.10
2019-05-05T09:46:48.037Z,14.70
2019-05-05T09:49:15.886Z,15.10
2019-05-05T09:51:43.950Z,15.30
2019-05-05T09:54:14.534Z,15.90
2019-05-05T09:56:40.582Z,15.90
2019-05-05T09:59:07.887Z,15.80
2019-05-05T10:01:35.155Z,15.70
2019-05-05T10:04:08.890Z,15.70
2019-05-05T10:06:37.315Z,15.60
2019-05-05T10:09:06.843Z,14.90
2019-05-05T10:11:35.385Z,14.70
2019-05-05T10:14:03.986Z,14.50
2019-05-05T10:16:31.363Z,14.70
2019-05-05T10:18:58.743Z,14.80
2019-05-05T10:21:25.998Z,15.00
2019-05-05T10:23:55.332Z,14.80
2019-05-05T10:26:23.872Z,14.90
2019-05-05T10:28:51.270Z,15.30
2019-05-05T10:31:18.328Z,15.60
2019-05-05T10:33:50.595Z,15.90
2019-05-05T10:36:17.894Z,15.90
2019-05-05T10:38:48.176Z,16.10
2019-05-05T10:41:15.586Z,16.50
2019-05-05T10:43:43.748Z,16.40
2019-05-05T10:46:10.795Z,16.50
2019-05-05T10:48:39.110Z,17.40
2019-05-05T10:51:06.345Z,17.40
2019-05-05T10:53:34.124Z,18.50
2019-05-05T10:56:01.687Z,20.40
2019-05-05T10:58:28.779Z,20.90
2019-05-05T11:01:04.179Z,20.10
2019-05-05T11:03:31.274Z,19.50
2019-05-05T11:05:58.690Z,19.20
2019-05-05T11:08:30.659Z,19.40
2019-05-05T11:11:00.581Z,20.90
2019-05-05T11:13:27.736Z,22.60
2019-05-05T11:15:54.902Z,23.00
2019-05-05T11:18:23.773Z,21.90
2019-05-05T11:20:58.442Z,21.70
2019-05-05T11:23:25.312Z,21.20
2019-05-05T11:25:54.457Z,20.80
2019-05-05T11:28:21.170Z,19.60
2019-05-05T11:30:48.146Z,18.40
2019-05-05T11:33:34.439Z,17.30
2019-05-05T11:36:14.117Z,16.50
2019-05-05T11:38:49.421Z,15.80
2019-05-05T11:41:20.246Z,15.40
2019-05-05T11:43:47.111Z,14.70
2019-05-05T11:46:14.450Z,14.60
2019-05-05T11:48:43.937Z,14.60
2019-05-05T11:51:10.828Z,14.20
2019-05-05T11:53:37.728Z,13.70
2019-05-05T11:56:04.730Z,13.60
2019-05-05T11:58:33.918Z,13.60
2019-05-05T12:01:00.687Z,13.70
2019-05-05T12:03:27.774Z,13.90
2019-05-05T12:05:55.889Z,14.00
2019-05-05T12:08:23.844Z,14.10
2019-05-05T12:10:58.606Z,14.30
2019-05-05T12:13:25.675Z,14.40
2019-05-05T12:16:13.614Z,14.60
2019-05-05T12:18:40.403Z,14.80
2019-05-05T12:21:07.316Z,15.10
2019-05-05T12:23:34.407Z,15.30
2019-05-05T12:26:29.855Z,15.70
2019-05-05T12:29:02.461Z,15.80
2019-05-05T12:31:45.185Z,15.80
2019-05-05T12:34:31.695Z,16.30
2019-05-05T12:40:14.331Z,17.70
2019-05-05T12:42:48.372Z,18.70
2019-05-05T12:45:20.508Z,19.40
2019-05-05T12:48:05.762Z,19.40
2019-05-05T12:50:33.848Z,20.60
2019-05-05T12:53:01.382Z,21.20
2019-05-05T12:55:39.073Z,21.40
2019-05-05T12:57:57.683Z,21.10
2019-05-05T13:00:26.349Z,21.10
2019-05-05T13:02:53.923Z,22.20
2019-05-05T13:05:23.596Z,23.10
2019-05-05T13:07:50.455Z,24.00
2019-05-05T13:10:19.867Z,24.50
2019-05-05T13:12:47.830Z,23.30
2019-05-05T13:15:15.667Z,21.50
2019-05-05T13:17:43.786Z,19.80
2019-05-05T13:20:24.785Z,18.80
2019-05-05T13:23:11.670Z,19.50
2019-05-05T13:25:59.487Z,20.50
2019-05-05T13:28:27.225Z,21.30
2019-05-05T13:30:54.543Z,22.20
2019-05-05T13:33:24.660Z,23.50
2019-05-05T13:35:53.797Z,24.90
2019-05-05T13:38:23.969Z,25.20
2019-05-05T13:40:51.573Z,25.00
2019-05-05T13:43:18.953Z,25.60
2019-05-05T13:46:01.030Z,25.10
2019-05-05T13:48:29.247Z,25.10
2019-05-05T13:50:59.169Z,26.10
2019-05-05T13:53:31.048Z,26.60
2019-05-05T13:56:11.089Z,26.40
2019-05-05T13:58:30.706Z,26.10
2019-05-05T14:01:49.117Z,25.70
2019-05-05T14:04:25.621Z,25.50
2019-05-05T14:06:54.325Z,25.60
2019-05-05T14:09:34.973Z,26.40
2019-05-05T14:12:04.082Z,25.70
2019-05-05T14:14:33.609Z,24.20
2019-05-05T14:17:09.535Z,23.40
2019-05-05T14:19:36.879Z,23.10
2019-05-05T14:22:04.403Z,21.80
2019-05-05T14:24:48.230Z,21.60
2019-05-05T14:27:15.382Z,21.90
2019-05-05T14:29:54.182Z,22.70
2019-05-05T14:32:24.006Z,22.40
2019-05-05T14:34:57.391Z,21.60
2019-05-05T14:37:27.388Z,21.50
2019-05-05T14:39:54.711Z,21.00
2019-05-05T14:42:23.523Z,20.20
2019-05-05T14:44:51.027Z,19.80
2019-05-05T14:47:18.084Z,19.50
2019-05-05T14:49:45.430Z,18.80
2019-05-05T14:52:13.685Z,18.50
2019-05-05T14:54:40.774Z,17.80
2019-05-05T14:57:07.859Z,17.10
2019-05-05T14:59:37.075Z,16.80
2019-05-05T15:02:04.327Z,16.60
2019-05-05T15:04:34.590Z,16.30
2019-05-05T15:07:23.344Z,15.80
2019-05-05T15:09:54.658Z,15.40
2019-05-05T15:12:26.707Z,15.10
2019-05-05T15:14:54.708Z,14.70
2019-05-05T15:17:22.015Z,14.20
2019-05-05T15:19:49.187Z,14.10
2019-05-05T15:22:17.196Z,14.00
2019-05-05T15:24:44.310Z,14.00
2019-05-05T15:27:11.387Z,13.80
2019-05-05T15:29:38.546Z,13.70
2019-05-05T15:32:05.544Z,13.60
2019-05-05T15:34:34.254Z,13.60
2019-05-05T15:37:03.780Z,13.60
2019-05-05T15:39:30.747Z,13.60
2019-05-05T15:41:58.038Z,13.30
2019-05-05T15:44:25.189Z,13.30
2019-05-05T15:46:57.064Z,13.50
2019-05-05T15:49:21.455Z,13.40
2019-05-05T15:51:48.635Z,13.60
2019-05-05T15:54:16.089Z,13.80
2019-05-05T15:56:43.210Z,13.80
2019-05-05T15:59:10.227Z,14.00
2019-05-05T16:01:37.488Z,14.00
2019-05-05T16:04:04.530Z,14.00
2019-05-05T16:06:31.643Z,14.10
2019-05-05T16:08:58.751Z,14.00
2019-05-05T16:11:26.977Z,13.80
2019-05-05T16:13:54.510Z,13.90
2019-05-05T16:16:43.958Z,14.10
2019-05-05T16:19:45.961Z,14.30
2019-05-05T16:22:19.128Z,14.40
2019-05-05T16:25:05.768Z,14.10
2019-05-05T16:27:33.554Z,13.90
2019-05-05T16:30:00.854Z,14.10
2019-05-05T16:32:28.067Z,14.40
2019-05-05T16:34:55.331Z,14.20
2019-05-05T16:37:23.589Z,14.20
2019-05-05T16:39:51.081Z,14.20
2019-05-05T16:42:18.510Z,14.10
2019-05-05T16:44:45.614Z,14.00
2019-05-05T16:47:13.580Z,14.00
2019-05-05T16:49:42.043Z,13.80
2019-05-05T16:52:15.898Z,13.30
2019-05-05T16:55:06.725Z,13.10
2019-05-05T16:57:36.556Z,13.00
2019-05-05T17:00:03.945Z,12.90
2019-05-05T17:02:33.293Z,12.90
2019-05-05T17:05:02.124Z,13.00
2019-05-05T17:07:29.375Z,12.90
2019-05-05T17:09:56.460Z,12.70
2019-05-05T17:12:24.352Z,12.50
2019-05-05T17:15:16.778Z,12.30
2019-05-05T17:17:55.959Z,12.10
2019-05-05T17:20:24.566Z,11.90
2019-05-05T17:22:58.078Z,11.70
2019-05-05T17:25:25.234Z,11.50
2019-05-05T17:27:54.402Z,11.30
2019-05-05T17:30:24.499Z,11.20
2019-05-05T17:32:50.826Z,11.10
2019-05-05T17:35:18.142Z,11.00
2019-05-05T17:37:45.762Z,10.90
2019-05-05T17:40:24.231Z,10.80
2019-05-05T17:43:24.681Z,10.80
2019-05-05T17:46:15.751Z,10.70
2019-05-05T17:49:00.884Z,10.70
2019-05-05T17:51:47.674Z,10.80
2019-05-05T17:54:24.191Z,10.80
2019-05-05T17:56:53.035Z,10.80
2019-05-05T17:59:20.574Z,10.70
2019-05-05T18:01:47.693Z,10.70
2019-05-05T18:04:14.874Z,10.70
2019-05-05T18:06:46.698Z,10.60
2019-05-05T18:09:24.788Z,10.50
2019-05-05T18:12:10.739Z,10.40
2019-05-05T18:14:38.199Z,10.30
2019-05-05T18:17:05.332Z,10.10
2019-05-05T18:19:34.009Z,10.20
2019-05-05T18:22:01.406Z,10.30
2019-05-05T18:24:28.586Z,10.30
2019-05-05T18:26:55.755Z,10.30
2019-05-05T18:29:24.292Z,10.30
2019-05-05T18:31:53.548Z,10.30
2019-05-05T18:34:20.880Z,10.40
2019-05-05T18:36:47.950Z,10.30
2019-05-05T18:39:14.922Z,10.20
2019-05-05T18:41:47.711Z,10.20
2019-05-05T18:44:24.067Z,10.20
2019-05-05T18:47:11.917Z,10.20
2019-05-05T18:49:38.459Z,10.10
2019-05-05T18:52:05.759Z,10.10
2019-05-05T18:54:33.985Z,10.00
2019-05-05T18:57:01.522Z,10.00
2019-05-05T18:59:28.498Z,9.80
2019-05-05T19:02:09.174Z,9.70
2019-05-05T19:04:45.309Z,9.60
2019-05-05T19:07:34.919Z,9.40
2019-05-05T19:10:04.051Z,9.30
2019-05-05T19:12:34.531Z,9.10
2019-05-05T19:15:04.152Z,9.00
2019-05-05T19:17:34.467Z,9.00
2019-05-05T19:20:07.254Z,9.00
2019-05-05T19:22:36.154Z,8.90
2019-05-05T19:25:15.565Z,8.90
2019-05-05T19:27:44.642Z,8.80
2019-05-05T19:30:13.750Z,8.80
2019-05-05T19:32:40.915Z,8.70
2019-05-05T19:35:08.343Z,8.70
2019-05-05T19:37:36.455Z,8.60
2019-05-05T19:40:04.314Z,8.60
2019-05-05T19:42:32.829Z,8.50
2019-05-05T19:44:59.970Z,8.50
2019-05-05T19:47:27.199Z,8.50
2019-05-05T19:50:00.274Z,8.30
2019-05-05T19:52:27.514Z,8.20
2019-05-05T19:54:54.857Z,8.30
2019-05-05T19:57:21.940Z,8.10
2019-05-05T19:59:49.051Z,8.10
2019-05-05T20:02:16.391Z,8.10
2019-05-05T20:04:44.692Z,8.00
2019-05-05T20:07:13.957Z,7.90
2019-05-05T20:09:41.079Z,7.90
2019-05-05T20:12:08.222Z,7.80
2019-05-05T20:14:35.546Z,7.70
2019-05-05T20:17:08.537Z,7.50
2019-05-05T20:19:39.925Z,7.40
2019-05-05T20:22:07.033Z,7.40
2019-05-05T20:24:34.213Z,7.40
2019-05-05T20:27:01.225Z,7.40
2019-05-05T20:29:28.391Z,7.30
2019-05-05T20:31:56.745Z,7.20
2019-05-05T20:34:33.899Z,7.20
2019-05-05T20:37:15.067Z,7.10
2019-05-05T20:39:43.981Z,7.20
2019-05-05T20:42:11.389Z,7.10
2019-05-05T20:44:38.563Z,7.10
2019-05-05T20:47:11.787Z,7.10
2019-05-05T20:49:38.923Z,7.00
2019-05-05T20:52:06.114Z,6.90
2019-05-05T20:54:33.294Z,6.80
2019-05-05T20:57:00.634Z,6.80
2019-05-05T20:59:30.884Z,6.80
2019-05-05T21:01:56.989Z,6.80
2019-05-05T21:04:24.681Z,6.70
2019-05-05T21:06:52.023Z,6.70
2019-05-05T21:09:19.286Z,6.60
2019-05-05T21:11:46.528Z,6.60
2019-05-05T21:14:14.787Z,6.60
2019-05-05T21:16:44.084Z,6.50
2019-05-05T21:19:11.452Z,6.50
2019-05-05T21:21:40.762Z,6.40
2019-05-05T21:24:08.070Z,6.30
2019-05-05T21:26:53.891Z,6.20
2019-05-05T21:29:21.001Z,6.30
2019-05-05T21:31:48.284Z,6.20
2019-05-05T21:34:15.501Z,6.10
2019-05-05T21:36:44.761Z,6.10
2019-05-05T21:39:11.925Z,6.20
2019-05-05T21:41:39.006Z,6.20
2019-05-05T21:44:06.248Z,6.20
2019-05-05T21:46:34.693Z,6.20
2019-05-05T21:49:03.851Z,6.10
2019-05-05T21:51:43.223Z,6.10
2019-05-05T21:54:34.123Z,6.00
2019-05-05T21:57:09.641Z,6.00
2019-05-05T21:59:36.798Z,6.00
2019-05-05T22:02:04.200Z,6.10
2019-05-05T22:04:33.672Z,6.10
2019-05-05T22:07:00.335Z,6.10
2019-05-05T22:09:27.994Z,6.20
2019-05-05T22:11:55.269Z,6.20
2019-05-05T22:14:23.670Z,6.30
2019-05-05T22:16:51.270Z,6.40
2019-05-05T22:19:20.391Z,6.40
2019-05-05T22:21:54.502Z,6.40
2019-05-05T22:24:22.295Z,6.50
2019-05-05T22:26:50.406Z,6.50
2019-05-05T22:29:17.646Z,6.50
2019-05-05T22:31:45.049Z,6.50
2019-05-05T22:34:14.406Z,6.60
2019-05-05T22:36:41.465Z,6.60
2019-05-05T22:39:10.488Z,6.60
2019-05-05T22:41:37.931Z,6.60
2019-05-05T22:44:05.215Z,6.70
2019-05-05T22:46:34.635Z,6.60
2019-05-05T22:49:03.800Z,6.60
2019-05-05T22:51:30.844Z,6.50
2019-05-05T22:53:58.223Z,6.30
2019-05-05T22:56:25.468Z,6.20
2019-05-05T22:58:54.681Z,6.20
2019-05-05T23:01:24.059Z,6.10
2019-05-05T23:04:03.720Z,6.00
2019-05-05T23:06:31.479Z,6.00
2019-05-05T23:08:58.598Z,5.90
2019-05-05T23:11:25.846Z,5.80
2019-05-05T23:13:56.409Z,5.80
2019-05-05T23:16:30.411Z,5.90
2019-05-05T23:18:58.854Z,5.90
2019-05-05T23:21:38.014Z,5.90
2019-05-05T23:24:27.999Z,5.90
2019-05-05T23:27:03.918Z,5.70
2019-05-05T23:29:34.003Z,5.50
2019-05-05T23:32:02.374Z,5.50
2019-05-05T23:34:29.559Z,5.30
2019-05-05T23:36:56.759Z,5.20
2019-05-05T23:39:24.296Z,5.20
2019-05-05T23:41:51.847Z,5.20
2019-05-05T23:44:18.945Z,5.20
2019-05-05T23:46:47.391Z,5.20
2019-05-05T23:49:14.902Z,5.20
2019-05-05T23:51:44.000Z,5.10
2019-05-05T23:54:13.527Z,5.00
2019-05-05T23:56:40.276Z,5.20
2019-05-05T23:59:07.434Z,5.20
